This is the latest recevied weather packets stored in our database for station/object N7SHZ. If no packets are shown the sender has not sent any weather packets the latest 1 day(s).
| Time | Temp. | Humidity | Pressure | Rain* | Wind** | Luminosity | Snow |
|---|---|---|---|---|---|---|---|
| 1778026576 | 1.67° C | 99% | 1026.6 hPa | - | 4.47 m/s, 228° | 80 W/m² | - |
| 1778026274 | 1.67° C | 99% | 1027 hPa | - | 5.81 m/s, 255° | 293 W/m² | - |
| 1778025971 | 1.67° C | 99% | 1026.7 hPa | - | 4.47 m/s, 232° | 64 W/m² | - |
| 1778025668 | 1.67° C | 99% | 1026.7 hPa | - | 4.92 m/s, 241° | 178 W/m² | - |
| 1778025366 | 2.22° C | 99% | 1026.6 hPa | - | 5.81 m/s, 288° | 87 W/m² | - |
| 1778025063 | 2.22° C | 99% | 1026.7 hPa | - | 11.18 m/s, 258° | 164 W/m² | - |
| 1778024760 | 2.22° C | 99% | 1026.9 hPa | - | 6.71 m/s, 235° | 153 W/m² | - |
| 1778024456 | 2.22° C | 99% | 1026.7 hPa | - | 8.05 m/s, 235° | 115 W/m² | - |
| 1778024154 | 1.67° C | 99% | 1026.6 hPa | - | 8.49 m/s, 230° | 101 W/m² | - |
| 1778023851 | 2.22° C | 99% | 1026.5 hPa | - | 8.49 m/s, 236° | 126 W/m² | - |
| 1778023549 | 2.22° C | 99% | 1026.5 hPa | - | 5.81 m/s, 228° | 58 W/m² | - |
| 1778023246 | 2.22° C | 99% | 1026.7 hPa | - | 4.92 m/s, 235° | 180 W/m² | - |
| 1778022943 | 2.22° C | 99% | 1026.6 hPa | - | 8.49 m/s, 230° | 128 W/m² | - |
| 1778022642 | 1.67° C | 99% | 1026.9 hPa | - | 5.81 m/s, 233° | 283 W/m² | - |
| 1778022339 | 1.67° C | 99% | 1026.7 hPa | - | 6.71 m/s, 228° | 131 W/m² | - |
| 1778022035 | 1.67° C | 99% | 1026.5 hPa | - | 6.71 m/s, 237° | 69 W/m² | - |
| 1778021732 | 1.67° C | 99% | 1027 hPa | - | 4.02 m/s, 239° | 97 W/m² | - |
| 1778021428 | 1.67° C | 99% | 1026.7 hPa | - | 8.05 m/s, 233° | 90 W/m² | - |
| 1778021125 | 1.67° C | 99% | 1027.1 hPa | - | 7.6 m/s, 234° | 145 W/m² | - |
| 1778020822 | 1.67° C | 99% | 1026.6 hPa | - | 5.81 m/s, 259° | 697 W/m² | - |
| 1778020519 | 1.67° C | 99% | 1027 hPa | - | 4.92 m/s, 229° | 236 W/m² | - |
| 1778020216 | 1.67° C | 99% | 1027 hPa | - | 5.81 m/s, 248° | 1050 W/m² | - |
| 1778019912 | 1.67° C | 99% | 1027 hPa | - | 6.71 m/s, 233° | 194 W/m² | - |
| 1778019608 | 1.67° C | 99% | 1027.1 hPa | - | 7.15 m/s, 255° | 352 W/m² | - |
| 1778019305 | 1.67° C | 99% | 1027.3 hPa | - | 4.92 m/s, 267° | 349 W/m² | - |
* Rain since midnight (hover to see other rain measurements)
** Current wind speed in m/s (hover to see current wind gust speed)